Time;durP1;ratioP1;P1;durP2;ratioP2;P2;SDS_P1;SDS_P2;PMS_P1;PMS_P2;Temp;Humidity;BMP_temperature;BMP_pressure;BME280_temperature;BME280_humidity;BME280_pressure;Samples;Min_cycle;Max_cycle;Signal;HPM_P1;HPM_P2
2022/03/21 00:00:57;;;;;;;44.55;20.48;;;;;;;0.02;52.33;102570.59;5095718;28;20374;-76
2022/03/21 00:03:28;;;;;;;39.35;20.25;;;;;;;0.05;52.31;102575.03;5095791;28;20048;-76
2022/03/21 00:05:58;;;;;;;41.33;20.33;;;;;;;0.04;52.35;102573.25;5096111;28;20040;-76
2022/03/21 00:08:27;;;;;;;35.47;18.83;;;;;;;0.13;51.55;102573.44;5095618;28;20427;-76
2022/03/21 00:10:58;;;;;;;33.00;17.73;;;;;;;0.16;51.22;102570.88;5095863;28;20048;-76
2022/03/21 00:13:26;;;;;;;31.75;17.75;;;;;;;0.14;51.29;102564.72;5095482;28;20119;-76
2022/03/21 00:15:56;;;;;;;30.73;16.75;;;;;;;0.37;50.21;102571.25;5095920;28;20048;-76
2022/03/21 00:18:25;;;;;;;36.55;17.02;;;;;;;0.28;50.75;102566.72;5095704;28;20052;-76
2022/03/21 00:20:56;;;;;;;32.05;16.90;;;;;;;0.38;50.28;102564.28;5095367;28;20040;-76
2022/03/21 00:23:25;;;;;;;34.25;16.30;;;;;;;0.35;50.59;102567.72;5095329;28;20052;-76
2022/03/21 00:25:54;;;;;;;30.63;17.10;;;;;;;0.19;51.15;102573.53;5095273;28;20119;-75
2022/03/21 00:28:24;;;;;;;29.83;16.73;;;;;;;0.08;51.49;102570.72;5095357;28;20098;-76
2022/03/21 00:30:52;;;;;;;32.58;16.95;;;;;;;0.08;51.39;102567.19;5095449;28;20482;-75
2022/03/21 00:33:21;;;;;;;31.55;16.63;;;;;;;0.06;51.80;102568.91;5094931;28;20051;-76
2022/03/21 00:35:51;;;;;;;28.52;16.25;;;;;;;0.09;51.34;102571.59;5095089;28;20040;-75
2022/03/21 00:38:21;;;;;;;30.70;16.25;;;;;;;0.21;51.19;102563.97;5095080;28;20051;-76
2022/03/21 00:40:51;;;;;;;33.58;16.63;;;;;;;0.18;51.01;102566.53;5095478;28;20126;-76
2022/03/21 00:43:22;;;;;;;29.83;15.63;;;;;;;0.26;50.76;102557.94;5095156;28;20078;-76
2022/03/21 00:45:54;;;;;;;30.85;16.10;;;;;;;0.13;50.84;102557.69;5095048;28;20233;-76
2022/03/21 00:48:23;;;;;;;30.13;15.18;;;;;;;0.11;50.80;102555.03;5094841;28;20135;-74
2022/03/21 00:50:52;;;;;;;29.52;15.02;;;;;;;0.04;51.37;102558.41;5094862;28;20096;-74
2022/03/21 00:53:21;;;;;;;25.95;14.38;;;;;;;0.09;50.85;102561.09;5094819;28;20544;-74
2022/03/21 00:55:50;;;;;;;32.13;15.27;;;;;;;0.00;51.23;102556.56;5095195;28;20093;-74
2022/03/21 00:58:18;;;;;;;30.15;15.80;;;;;;;0.03;51.66;102556.63;5094416;28;20399;-75
2022/03/21 01:00:49;;;;;;;31.23;16.45;;;;;;;-0.07;52.05;102555.56;5095037;28;20097;-75
2022/03/21 01:03:19;;;;;;;28.35;16.08;;;;;;;-0.20;52.40;102561.38;5094107;28;20044;-76
2022/03/21 01:05:48;;;;;;;33.47;16.42;;;;;;;-0.15;52.21;102559.75;5094676;28;20032;-76
2022/03/21 01:08:16;;;;;;;28.60;15.48;;;;;;;0.02;51.74;102553.97;5094268;28;20568;-77
2022/03/21 01:10:44;;;;;;;28.45;15.55;;;;;;;-0.20;52.16;102553.53;5094299;28;20097;-76
2022/03/21 01:13:14;;;;;;;29.27;15.13;;;;;;;-0.35;52.73;102558.47;5094662;28;20093;-76
2022/03/21 01:15:43;;;;;;;27.27;14.45;;;;;;;-0.39;53.10;102551.38;5095152;28;20043;-76
2022/03/21 01:18:11;;;;;;;31.15;15.73;;;;;;;-0.30;52.26;102551.56;5094272;28;20056;-76
2022/03/21 01:20:41;;;;;;;27.15;14.57;;;;;;;-0.13;52.08;102552.81;5094238;28;20048;-76
2022/03/21 01:23:09;;;;;;;29.13;15.00;;;;;;;-0.08;51.46;102545.91;5094480;28;20048;-76
2022/03/21 01:25:37;;;;;;;27.50;14.90;;;;;;;-0.14;51.73;102545.78;5094068;28;20469;-75
2022/03/21 01:28:05;;;;;;;27.85;14.63;;;;;;;-0.02;51.55;102547.75;5094466;28;20133;-75
2022/03/21 01:30:36;;;;;;;28.50;14.80;;;;;;;-0.14;51.54;102553.66;5094073;28;20044;-75
2022/03/21 01:33:07;;;;;;;26.13;14.35;;;;;;;-0.03;51.25;102541.63;5093949;28;20435;-75
2022/03/21 01:35:35;;;;;;;25.92;14.60;;;;;;;-0.12;51.75;102549.31;5093879;28;20401;-76
2022/03/21 01:38:05;;;;;;;29.60;15.48;;;;;;;-0.20;51.77;102543.03;5093900;28;20050;-75
2022/03/21 01:40:33;;;;;;;28.85;13.90;;;;;;;-0.31;52.13;102539.31;5093747;28;20048;-77
2022/03/21 01:43:02;;;;;;;27.00;13.95;;;;;;;-0.25;52.15;102544.69;5093949;28;20044;-76
2022/03/21 01:45:30;;;;;;;26.80;13.98;;;;;;;-0.21;52.26;102545.63;5094091;28;20047;-76
2022/03/21 01:47:58;;;;;;;30.02;15.02;;;;;;;-0.21;52.35;102543.88;5094002;28;20048;-76
2022/03/21 01:50:27;;;;;;;29.08;14.32;;;;;;;-0.24;52.33;102538.59;5093696;28;20443;-76
2022/03/21 01:55:43;;;;;;;26.95;14.10;;;;;;;-0.47;52.97;102537.22;5093877;28;20048;-76
2022/03/21 01:55:45;;;;;;;23.40;12.95;;;;;;;-0.32;52.55;102537.53;5094106;28;20482;-76
2022/03/21 01:58:15;;;;;;;27.58;14.52;;;;;;;-0.27;52.45;102540.28;5075734;28;20139;-76
2022/03/21 02:00:45;;;;;;;28.70;14.05;;;;;;;-0.26;52.72;102531.56;5093175;28;20051;-77
2022/03/21 02:03:14;;;;;;;25.70;14.45;;;;;;;-0.35;52.92;102534.88;5093606;28;20044;-78
2022/03/21 02:05:43;;;;;;;26.25;13.40;;;;;;;-0.38;53.08;102533.06;5093573;28;20546;-79
2022/03/21 02:08:12;;;;;;;24.80;12.63;;;;;;;-0.41;52.91;102532.09;5093373;28;20048;-79
2022/03/21 02:10:42;;;;;;;24.38;12.68;;;;;;;-0.40;53.03;102533.88;5093352;28;20054;-78
2022/03/21 02:13:13;;;;;;;25.67;13.73;;;;;;;-0.41;53.03;102543.47;5093309;28;20089;-79
2022/03/21 02:15:41;;;;;;;27.25;13.60;;;;;;;-0.42;53.18;102530.34;5092679;28;20132;-78
2022/03/21 02:18:12;;;;;;;26.23;13.77;;;;;;;-0.61;53.96;102527.31;5093183;28;20460;-77
2022/03/21 02:20:42;;;;;;;25.80;13.20;;;;;;;-0.52;53.90;102536.22;5093008;28;20354;-75
2022/03/21 02:23:17;;;;;;;26.85;12.68;;;;;;;-0.56;53.57;102531.78;5093262;28;20052;-75
2022/03/21 02:25:48;;;;;;;26.20;13.48;;;;;;;-0.66;54.21;102530.69;5093667;28;20101;-75
2022/03/21 02:28:17;;;;;;;29.67;14.60;;;;;;;-0.70;54.33;102534.97;5093112;28;20078;-76
2022/03/21 02:30:48;;;;;;;28.65;14.02;;;;;;;-0.73;54.62;102523.56;5093244;28;20168;-76
2022/03/21 02:33:17;;;;;;;26.65;13.13;;;;;;;-0.70;54.05;102526.22;5093760;28;20039;-74
2022/03/21 02:35:48;;;;;;;26.13;13.55;;;;;;;-0.76;54.89;102531.34;5092744;28;20464;-76
2022/03/21 02:38:18;;;;;;;22.30;12.45;;;;;;;-0.75;54.25;102531.38;5093339;28;20131;-76
2022/03/21 02:40:48;;;;;;;29.70;13.90;;;;;;;-0.64;54.40;102519.41;5092865;28;20500;-76
2022/03/21 02:43:16;;;;;;;26.02;14.10;;;;;;;-0.76;54.76;102524.38;5093207;28;20536;-76
2022/03/21 02:45:44;;;;;;;26.75;13.70;;;;;;;-0.95;54.91;102519.56;5092616;28;20123;-76
2022/03/21 02:48:13;;;;;;;24.75;12.98;;;;;;;-0.88;55.01;102526.69;5092918;28;20378;-76
2022/03/21 02:50:49;;;;;;;25.13;13.30;;;;;;;-0.98;55.43;102522.09;5092868;28;20052;-77
2022/03/21 02:53:20;;;;;;;26.70;14.25;;;;;;;-0.88;55.23;102524.06;5093126;28;20038;-76
2022/03/21 02:55:54;;;;;;;26.98;14.02;;;;;;;-0.94;55.37;102524.84;5092968;28;20040;-79
2022/03/21 02:58:22;;;;;;;;;;;;;;;-1.14;55.74;102528.72;5093579;28;20040;-78
2022/03/21 03:00:50;;;;;;;23.92;12.63;;;;;;;-1.05;55.64;102522.81;5093009;28;19923;-78
2022/03/21 03:03:19;;;;;;;26.50;12.90;;;;;;;-1.10;55.46;102522.69;5093116;28;20071;-76
2022/03/21 03:05:47;;;;;;;24.58;14.35;;;;;;;-1.10;55.78;102533.19;5092414;28;20097;-76
2022/03/21 03:08:15;;;;;;;23.73;13.05;;;;;;;-0.90;54.82;102526.66;5092988;28;20366;-76
2022/03/21 03:10:43;;;;;;;23.65;12.57;;;;;;;-1.06;55.30;102528.88;5092683;28;20476;-76
2022/03/21 03:13:13;;;;;;;29.38;13.95;;;;;;;-1.06;55.44;102534.13;5092776;28;20079;-76
2022/03/21 03:15:41;;;;;;;23.52;13.60;;;;;;;-1.03;54.62;102534.22;5092667;28;20525;-76
2022/03/21 03:18:09;;;;;;;24.70;13.85;;;;;;;-1.00;54.95;102524.69;5092997;28;20048;-76
2022/03/21 03:20:38;;;;;;;27.08;12.50;;;;;;;-0.85;53.76;102529.41;5074707;28;20075;-76
2022/03/21 03:23:07;;;;;;;28.08;14.18;;;;;;;-1.01;54.48;102538.63;5092811;28;20501;-76
2022/03/21 03:25:36;;;;;;;25.90;13.13;;;;;;;-0.97;54.34;102529.09;5092102;28;20048;-75
2022/03/21 03:28:05;;;;;;;24.95;12.73;;;;;;;-0.98;54.73;102529.94;5077844;28;20082;-75
2022/03/21 03:30:42;;;;;;;25.73;13.98;;;;;;;-1.01;55.03;102530.78;5096355;28;20040;-76
2022/03/21 03:33:10;;;;;;;24.55;13.15;;;;;;;-0.97;54.58;102529.09;5096638;28;20040;-76
2022/03/21 03:35:39;;;;;;;26.88;14.43;;;;;;;-1.08;55.19;102525.34;5096286;28;20097;-76
2022/03/21 03:38:07;;;;;;;24.20;13.90;;;;;;;-1.17;55.55;102526.00;5096625;28;20468;-75
2022/03/21 03:40:35;;;;;;;27.52;13.70;;;;;;;-1.14;55.58;102536.59;5096135;28;20036;-76
2022/03/21 03:43:04;;;;;;;25.55;13.57;;;;;;;-1.08;55.30;102531.47;5096671;28;20048;-76
2022/03/21 03:45:32;;;;;;;28.02;14.00;;;;;;;-1.13;55.58;102529.59;5095802;28;20048;-76
2022/03/21 03:48:02;;;;;;;25.58;13.30;;;;;;;-1.15;55.48;102529.59;5096045;28;20040;-76
2022/03/21 03:50:30;;;;;;;28.33;14.23;;;;;;;-1.10;55.33;102532.28;5096078;28;20036;-76
2022/03/21 03:52:59;;;;;;;25.45;13.80;;;;;;;-1.16;55.87;102539.16;5096069;28;20086;-74
2022/03/21 03:55:27;;;;;;;28.10;14.18;;;;;;;-1.20;55.92;102532.06;5096004;28;20093;-76
2022/03/21 03:57:56;;;;;;;26.38;12.80;;;;;;;-1.25;55.78;102538.94;5095836;28;20168;-75
2022/03/21 04:00:26;;;;;;;27.85;14.02;;;;;;;-1.20;55.62;102537.31;5095839;28;20127;-76
2022/03/21 04:05:41;;;;;;;25.58;13.65;;;;;;;-1.08;55.08;102535.81;5095782;28;20040;-76
2022/03/21 04:08:10;;;;;;;24.20;13.15;;;;;;;-1.13;55.07;102538.34;5095862;28;20052;-76
2022/03/21 04:10:38;;;;;;;26.90;14.10;;;;;;;-1.22;55.32;102539.00;5095409;28;20566;-76
2022/03/21 04:13:06;;;;;;;22.95;13.05;;;;;;;-1.16;55.39;102541.78;5096310;28;20093;-76
2022/03/21 04:15:35;;;;;;;26.75;13.75;;;;;;;-1.03;55.18;102537.72;5095582;28;20040;-76
2022/03/21 04:18:05;;;;;;;24.20;13.38;;;;;;;-0.98;54.89;102541.31;5095968;28;20059;-76
2022/03/21 04:20:36;;;;;;;24.05;13.60;;;;;;;-1.17;55.33;102544.34;5095616;28;20430;-76
2022/03/21 04:23:07;;;;;;;25.40;13.35;;;;;;;-1.35;56.25;102541.25;5095411;28;20551;-76
2022/03/21 04:25:35;;;;;;;25.10;13.00;;;;;;;-1.39;56.21;102545.56;5095459;28;20036;-76
2022/03/21 04:28:08;;;;;;;28.27;13.80;;;;;;;-1.20;55.98;102545.16;5095901;28;20036;-76
2022/03/21 04:30:37;;;;;;;20.63;12.35;;;;;;;-1.03;55.63;102549.94;5095634;28;20048;-76
2022/03/21 04:33:06;;;;;;;26.40;13.13;;;;;;;-1.05;55.73;102547.28;5095583;28;20045;-76
2022/03/21 04:35:34;;;;;;;26.55;13.13;;;;;;;-1.02;55.51;102551.69;5094809;28;20048;-76
2022/03/21 04:38:03;;;;;;;24.25;13.32;;;;;;;-1.20;56.10;102547.78;5094960;28;20378;-76
2022/03/21 04:40:33;;;;;;;24.50;13.32;;;;;;;-1.18;56.42;102546.09;5094616;28;20040;-76
2022/03/21 04:43:01;;;;;;;29.13;13.60;;;;;;;-1.29;56.98;102546.66;5095240;28;20043;-76
2022/03/21 04:45:29;;;;;;;25.15;13.48;;;;;;;-1.24;56.64;102551.19;5094836;28;20408;-78
2022/03/21 04:47:58;;;;;;;27.85;13.55;;;;;;;-0.98;56.42;102553.53;5094846;28;20044;-76
2022/03/21 04:50:27;;;;;;;30.40;15.60;;;;;;;-1.03;56.02;102549.94;5095083;28;20040;-75
2022/03/21 04:52:55;;;;;;;30.50;14.30;;;;;;;-1.18;56.91;102556.56;5095000;28;20392;-76
2022/03/21 04:55:24;;;;;;;24.00;13.43;;;;;;;-1.11;56.72;102561.97;5095038;28;20036;-76
2022/03/21 04:57:53;;;;;;;28.60;14.18;;;;;;;-1.21;57.31;102560.84;5094472;28;20048;-78
2022/03/21 05:00:22;;;;;;;26.83;13.93;;;;;;;-1.24;57.57;102564.28;5094988;28;20136;-78
2022/03/21 05:02:50;;;;;;;26.40;13.75;;;;;;;-1.25;57.38;102559.91;5094336;28;20513;-78
2022/03/21 05:05:18;;;;;;;23.33;12.75;;;;;;;-1.16;57.44;102570.59;5094561;28;20044;-78
2022/03/21 05:07:52;;;;;;;30.33;14.52;;;;;;;-1.00;57.02;102563.97;5094609;28;20089;-78
2022/03/21 05:10:22;;;;;;;27.00;14.80;;;;;;;-1.12;57.11;102565.44;5094733;28;20043;-77
2022/03/21 05:12:51;;;;;;;28.45;14.32;;;;;;;-1.01;56.55;102561.31;5094063;28;20089;-78
2022/03/21 05:15:21;;;;;;;28.48;14.52;;;;;;;-1.13;57.38;102568.91;5094570;28;20047;-78
2022/03/21 05:17:51;;;;;;;27.73;13.88;;;;;;;-1.25;57.82;102566.88;5093857;28;20048;-77
2022/03/21 05:20:19;;;;;;;26.58;14.10;;;;;;;-1.13;57.33;102563.66;5094614;28;20044;-76
2022/03/21 05:30:57;;;;;;;25.02;13.50;;;;;;;-1.02;56.82;102568.31;5094385;28;20040;-76
2022/03/21 05:31:13;;;;;;;27.25;14.45;;;;;;;-1.29;58.06;102576.34;5094448;28;20069;-78
2022/03/21 05:36:27;;;;;;;27.80;14.32;;;;;;;-1.01;57.13;102579.66;5094301;28;20040;-80
2022/03/21 05:38:56;;;;;;;26.15;13.90;;;;;;;-0.96;57.06;102578.06;5093954;28;20044;-78
2022/03/21 05:41:25;;;;;;;23.52;13.38;;;;;;;-0.74;55.82;102582.94;5094085;28;20516;-79
2022/03/21 05:43:53;;;;;;;26.35;13.90;;;;;;;-0.70;55.81;102571.66;5093457;28;20040;-78
2022/03/21 05:46:23;;;;;;;31.65;13.98;;;;;;;-0.67;55.90;102581.38;5094162;28;20040;-76
2022/03/21 05:48:51;;;;;;;26.95;13.43;;;;;;;-0.75;56.36;102589.03;5093518;28;20119;-75
2022/03/21 05:51:22;;;;;;;29.98;14.45;;;;;;;-0.63;55.87;102589.31;5093841;28;20126;-78
2022/03/21 05:53:52;;;;;;;26.92;13.38;;;;;;;-0.43;55.61;102586.25;5093507;28;20040;-80
2022/03/21 05:56:21;;;;;;;28.58;14.50;;;;;;;-0.27;54.45;102595.34;5093390;28;20071;-81
2022/03/21 05:58:50;;;;;;;23.65;12.90;;;;;;;-0.03;54.15;102586.25;5093302;28;20040;-78
2022/03/21 06:01:22;;;;;;;27.40;13.48;;;;;;;-0.08;53.79;102573.91;5093609;28;20097;-79
2022/03/21 06:03:53;;;;;;;;;;;;;;;0.21;53.11;102592.84;5093824;28;20050;-74
2022/03/21 06:06:22;;;;;;;25.70;13.05;;;;;;;0.31;52.18;102591.28;5093727;28;19959;-75
2022/03/21 06:08:52;;;;;;;25.58;13.82;;;;;;;0.38;53.07;102586.16;5093309;28;20478;-74
2022/03/21 06:11:20;;;;;;;23.70;12.27;;;;;;;0.51;51.36;102603.06;5093178;28;20068;-75
2022/03/21 06:13:50;;;;;;;23.67;13.60;;;;;;;0.55;51.27;102600.50;5093231;28;20051;-78
2022/03/21 06:16:18;;;;;;;26.88;13.27;;;;;;;0.59;51.17;102597.94;5093796;28;20047;-78
2022/03/21 06:18:47;;;;;;;24.52;13.93;;;;;;;0.67;51.08;102601.56;5093423;28;20052;-78
2022/03/21 06:21:17;;;;;;;23.38;13.70;;;;;;;0.69;51.03;102597.25;5092942;28;20052;-76
2022/03/21 06:23:46;;;;;;;24.25;13.38;;;;;;;0.93;50.52;102602.91;5092756;28;20067;-75
2022/03/21 06:26:17;;;;;;;25.65;13.77;;;;;;;1.04;50.09;102605.72;5092917;28;20041;-74
2022/03/21 06:28:45;;;;;;;25.80;13.43;;;;;;;1.21;49.39;102606.00;5092731;28;20040;-80
2022/03/21 06:31:14;;;;;;;29.02;13.40;;;;;;;1.36;48.99;102600.97;5093196;28;20415;-80
2022/03/21 06:33:43;;;;;;;28.10;14.05;;;;;;;1.40;48.96;102602.78;5092791;28;20040;-79
2022/03/21 06:36:14;;;;;;;24.38;14.20;;;;;;;1.50;48.59;102607.31;5093346;28;20046;-76
2022/03/21 06:38:44;;;;;;;25.08;13.55;;;;;;;1.64;47.63;102608.41;5093144;28;20048;-77
2022/03/21 06:41:14;;;;;;;26.50;13.88;;;;;;;1.80;47.57;102605.97;5092966;28;20059;-76
2022/03/21 06:43:43;;;;;;;24.17;13.70;;;;;;;2.01;46.56;102606.25;5092784;28;20067;-78
2022/03/21 06:46:11;;;;;;;27.98;14.52;;;;;;;2.11;46.36;102612.50;5092740;28;20089;-79
2022/03/21 06:48:39;;;;;;;28.58;13.70;;;;;;;2.14;46.06;102609.94;5092944;28;20040;-79
2022/03/21 06:51:07;;;;;;;23.20;13.95;;;;;;;2.21;45.41;102601.22;5092909;28;20036;-74
2022/03/21 06:53:36;;;;;;;24.77;13.45;;;;;;;2.34;44.04;102604.88;5093013;28;20044;-74
2022/03/21 06:56:06;;;;;;;23.98;13.43;;;;;;;2.42;44.27;102616.41;5092806;28;20040;-73
2022/03/21 06:58:34;;;;;;;21.40;12.38;;;;;;;2.48;43.47;102619.06;5093543;28;20051;-75
2022/03/21 07:01:03;;;;;;;24.10;12.25;;;;;;;2.63;42.79;102610.47;5092945;28;20090;-71
2022/03/21 07:03:32;;;;;;;26.52;12.88;;;;;;;2.71;42.03;102612.31;5096529;28;20048;-73
2022/03/21 07:06:01;;;;;;;25.15;12.68;;;;;;;2.68;41.95;102619.28;5096863;28;20613;-71
2022/03/21 07:08:31;;;;;;;26.52;13.30;;;;;;;2.79;41.51;102605.34;5096914;28;20094;-71
2022/03/21 07:10:59;;;;;;;23.92;12.88;;;;;;;2.94;41.68;102606.34;5096461;28;20047;-71
2022/03/21 07:13:29;;;;;;;23.63;13.35;;;;;;;3.08;41.81;102607.34;5096953;28;20134;-71
2022/03/21 07:15:58;;;;;;;24.20;12.65;;;;;;;3.04;41.22;102606.44;5096747;28;20098;-70
2022/03/21 07:18:27;;;;;;;26.38;13.18;;;;;;;3.12;41.26;102603.88;5098523;28;20134;-74
2022/03/21 07:20:55;;;;;;;24.20;13.48;;;;;;;3.33;40.87;102605.78;5096610;28;20048;-74
2022/03/21 07:23:24;;;;;;;26.92;12.70;;;;;;;3.37;40.33;102605.81;5096652;28;20055;-74
2022/03/21 07:25:52;;;;;;;23.30;12.48;;;;;;;3.39;41.06;102614.63;5096010;28;20048;-75
2022/03/21 07:28:20;;;;;;;24.52;12.27;;;;;;;3.64;40.12;102614.78;5096336;28;20052;-74
2022/03/21 07:31:10;;;;;;;21.38;12.32;;;;;;;3.58;40.18;102620.03;5096915;28;20059;-74
2022/03/21 07:33:39;;;;;;;23.80;12.73;;;;;;;3.57;40.36;102624.44;5096707;28;20491;-74
2022/03/21 07:36:08;;;;;;;23.52;12.48;;;;;;;3.64;40.31;102617.41;5096540;28;20041;-70
2022/03/21 07:38:37;;;;;;;24.35;13.52;;;;;;;3.59;40.60;102621.81;5096602;28;20370;-78
2022/03/21 07:41:07;;;;;;;22.95;13.25;;;;;;;3.79;40.33;102617.53;5096036;28;20048;-77
2022/03/21 07:43:35;;;;;;;26.08;13.48;;;;;;;3.77;40.67;102619.28;5096464;28;20370;-75
2022/03/21 07:48:52;;;;;;;24.30;13.38;;;;;;;3.97;39.70;102619.38;5096321;28;20047;-76
2022/03/21 07:51:20;;;;;;;24.75;12.77;;;;;;;3.99;40.11;102618.50;5078283;28;20154;-73
2022/03/21 07:53:49;;;;;;;24.60;13.07;;;;;;;4.04;40.09;102618.50;5096091;28;20089;-76
2022/03/21 07:56:23;;;;;;;22.67;13.00;;;;;;;4.03;39.69;102620.25;5096462;28;20051;-73
2022/03/21 07:58:51;;;;;;;25.35;13.50;;;;;;;4.06;40.13;102619.41;5095597;28;20040;-72
2022/03/21 08:01:20;;;;;;;28.13;12.75;;;;;;;4.28;39.55;102621.25;5096178;28;20453;-71
2022/03/21 08:03:49;;;;;;;27.00;13.45;;;;;;;4.50;38.93;102619.56;5095841;28;20040;-72
2022/03/21 08:06:19;;;;;;;22.75;12.95;;;;;;;4.49;39.35;102617.78;5096061;28;20073;-73
2022/03/21 08:08:49;;;;;;;25.88;13.15;;;;;;;4.50;39.21;102614.25;5095411;28;20048;-74
2022/03/21 08:11:18;;;;;;;22.75;12.00;;;;;;;4.79;38.90;102609.03;5095349;28;20391;-73
2022/03/21 08:13:49;;;;;;;24.25;12.65;;;;;;;4.80;38.62;102613.44;5094084;28;20043;-80
2022/03/21 08:16:22;;;;;;;30.23;12.82;;;;;;;4.83;38.33;102609.94;5095609;28;20047;-73
2022/03/21 08:18:52;;;;;;;24.42;12.98;;;;;;;4.84;38.44;102611.69;5095322;28;20097;-74
2022/03/21 08:21:22;;;;;;;24.45;12.35;;;;;;;4.95;37.77;102609.94;5094991;28;20058;-74
2022/03/21 08:23:50;;;;;;;20.92;12.35;;;;;;;5.02;37.57;102609.06;5095075;28;20506;-73
2022/03/21 08:26:18;;;;;;;23.98;12.57;;;;;;;5.15;37.20;102608.16;5094826;28;20068;-72
2022/03/21 08:28:47;;;;;;;22.88;12.55;;;;;;;5.26;37.35;102600.22;5077654;28;20048;-73
2022/03/21 08:31:15;;;;;;;20.00;11.63;;;;;;;5.45;36.80;102601.06;5095636;28;20370;-72
2022/03/21 08:33:46;;;;;;;23.45;12.43;;;;;;;5.51;36.26;102600.19;5095690;28;20068;-73
2022/03/21 08:36:14;;;;;;;26.95;12.57;;;;;;;5.44;36.57;102601.97;5095701;28;20032;-73
2022/03/21 08:38:44;;;;;;;23.70;12.43;;;;;;;5.61;36.08;102602.81;5095196;28;20046;-73
2022/03/21 08:41:16;;;;;;;23.10;12.32;;;;;;;5.54;36.22;102595.78;5095089;28;20044;-72
2022/03/21 08:43:45;;;;;;;21.60;12.13;;;;;;;5.65;36.38;102587.78;5095482;28;20127;-73
2022/03/21 08:46:13;;;;;;;23.58;12.43;;;;;;;5.86;35.39;102585.06;5094604;28;20064;-73
2022/03/21 08:51:44;;;;;;;17.88;9.70;;;;;;;6.64;31.87;102575.88;5095046;28;20093;-73
2022/03/21 08:54:14;;;;;;;15.88;9.63;;;;;;;6.73;31.91;102574.03;5094540;28;20051;-73
2022/03/21 08:56:43;;;;;;;20.23;10.35;;;;;;;6.62;31.67;102567.03;5094795;28;20051;-75
2022/03/21 08:59:11;;;;;;;17.83;10.50;;;;;;;6.72;31.53;102579.34;5094418;28;20134;-73
2022/03/21 09:01:40;;;;;;;16.45;10.60;;;;;;;6.79;31.35;102571.34;5094866;28;20051;-73
2022/03/21 09:04:09;;;;;;;17.17;10.52;;;;;;;6.79;31.54;102563.38;5076612;28;20071;-73
2022/03/21 09:06:38;;;;;;;19.02;10.35;;;;;;;6.88;31.39;102570.38;5094955;28;20122;-73
2022/03/21 09:09:06;;;;;;;22.13;11.20;;;;;;;6.98;31.02;102568.53;5094781;28;20119;-73
2022/03/21 09:11:37;;;;;;;19.33;10.80;;;;;;;7.11;30.85;102562.22;5094594;28;20044;-72
2022/03/21 09:14:07;;;;;;;16.50;9.32;;;;;;;7.21;30.82;102566.53;5094289;28;20054;-74
2022/03/21 09:16:36;;;;;;;19.60;11.18;;;;;;;7.24;30.46;102555.91;5094935;28;20141;-72
2022/03/21 09:19:05;;;;;;;15.88;9.68;;;;;;;7.33;30.38;102560.22;5093857;28;20048;-74
2022/03/21 09:21:33;;;;;;;17.48;10.07;;;;;;;7.44;29.97;102551.28;5094632;28;20481;-73
2022/03/21 09:24:02;;;;;;;21.75;10.95;;;;;;;7.45;30.48;102550.38;5094213;28;20047;-74
2022/03/21 09:26:31;;;;;;;18.45;10.10;;;;;;;7.65;29.84;102562.56;5094089;28;20047;-73
2022/03/21 09:29:03;;;;;;;17.00;10.23;;;;;;;7.72;29.58;102543.88;5094280;28;20043;-72
2022/03/21 09:31:32;;;;;;;16.85;10.02;;;;;;;7.56;29.63;102552.03;5094269;28;20428;-72
2022/03/21 09:34:07;;;;;;;16.77;10.10;;;;;;;7.55;30.09;102555.59;5094139;28;20560;-72
2022/03/21 09:36:36;;;;;;;20.33;11.23;;;;;;;7.64;30.17;102552.84;5094294;28;20046;-72
2022/03/21 09:39:06;;;;;;;19.70;11.25;;;;;;;7.78;29.76;102542.91;5094010;28;20135;-73
2022/03/21 09:41:34;;;;;;;18.60;10.27;;;;;;;7.73;30.03;102545.63;5093932;28;20089;-72
2022/03/21 09:44:09;;;;;;;20.33;11.20;;;;;;;7.69;29.97;102543.91;5093880;28;20044;-73
2022/03/21 09:46:39;;;;;;;19.27;10.82;;;;;;;7.89;29.33;102537.47;5093578;28;20564;-73
2022/03/21 09:49:11;;;;;;;15.32;9.68;;;;;;;7.91;29.08;102547.19;5093156;28;20048;-72
2022/03/21 09:51:40;;;;;;;17.55;9.85;;;;;;;7.96;29.36;102545.34;5092850;28;20040;-74
2022/03/21 09:54:09;;;;;;;21.83;10.18;;;;;;;7.82;29.39;102544.66;5092792;28;20047;-72
2022/03/21 09:56:38;;;;;;;19.42;11.57;;;;;;;7.91;29.35;102544.53;5093617;28;20051;-74
2022/03/21 09:59:08;;;;;;;19.25;10.77;;;;;;;7.97;28.88;102535.59;5093147;28;20037;-72
2022/03/21 10:01:38;;;;;;;20.02;10.82;;;;;;;7.90;28.93;102532.13;5093800;28;20044;-73
2022/03/21 10:04:08;;;;;;;16.92;10.00;;;;;;;7.86;28.75;102535.72;5093544;28;20044;-72
2022/03/21 10:06:40;;;;;;;13.25;9.20;;;;;;;7.99;28.52;102516.06;5093695;28;20401;-73
2022/03/21 10:09:14;;;;;;;19.52;10.25;;;;;;;8.06;29.01;102518.63;5093257;28;20397;-74
2022/03/21 10:11:50;;;;;;;15.90;9.63;;;;;;;8.03;28.92;102511.59;5093526;28;20498;-74
2022/03/21 10:14:32;;;;;;;16.20;9.40;;;;;;;8.33;28.22;102511.16;5093511;28;20055;-73
2022/03/21 10:17:03;;;;;;;17.85;9.45;;;;;;;8.54;28.32;102504.66;5093276;28;20392;-73
2022/03/21 10:19:43;;;;;;;20.08;9.52;;;;;;;8.44;27.97;102505.69;5093934;28;20119;-73
2022/03/21 10:22:13;;;;;;;19.20;9.57;;;;;;;8.58;27.73;102500.13;5093560;28;20040;-73
2022/03/21 10:24:42;;;;;;;17.70;9.75;;;;;;;8.54;27.53;102503.78;5093549;28;20464;-73
2022/03/21 10:27:29;;;;;;;14.52;9.63;;;;;;;8.45;27.61;102504.78;5093044;28;20127;-73
2022/03/21 10:30:01;;;;;;;17.35;9.45;;;;;;;8.27;28.30;102502.38;5092851;28;20135;-75
2022/03/21 10:32:34;;;;;;;18.40;10.88;;;;;;;8.27;28.84;102495.28;5092986;28;20056;-74
2022/03/21 10:35:03;;;;;;;15.70;9.60;;;;;;;8.61;28.41;102489.47;5075124;28;20573;-73
2022/03/21 10:37:49;;;;;;;16.77;9.20;;;;;;;8.87;27.51;102487.22;5092651;28;20118;-73
2022/03/21 10:40:23;;;;;;;19.73;9.75;;;;;;;8.77;27.80;102488.28;5093101;28;20036;-74
2022/03/21 10:42:59;;;;;;;16.02;9.77;;;;;;;8.74;27.49;102474.16;5093333;28;20044;-72
2022/03/21 10:45:44;;;;;;;15.02;9.65;;;;;;;8.81;27.78;102467.84;5074978;28;20125;-73
2022/03/21 10:48:15;;;;;;;18.33;10.10;;;;;;;8.92;27.66;102468.53;5092757;28;20048;-74
2022/03/21 10:50:47;;;;;;;16.90;9.43;;;;;;;8.97;27.88;102469.31;5092967;28;20118;-73
2022/03/21 10:53:17;;;;;;;14.20;8.98;;;;;;;8.97;27.70;102458.66;5092929;28;20094;-74
2022/03/21 10:55:48;;;;;;;18.08;9.75;;;;;;;8.99;27.46;102463.97;5092726;28;20055;-73
2022/03/21 10:58:32;;;;;;;16.00;9.82;;;;;;;8.91;27.65;102450.81;5092775;28;20440;-73
2022/03/21 11:01:12;;;;;;;16.42;10.20;;;;;;;8.80;28.20;102451.00;5092598;28;20040;-73
2022/03/21 11:03:42;;;;;;;13.88;8.63;;;;;;;8.96;27.26;102446.25;5092915;28;20389;-73
2022/03/21 11:06:11;;;;;;;15.82;9.90;;;;;;;8.96;27.00;102440.94;5092605;28;20044;-72
2022/03/21 11:08:40;;;;;;;16.58;9.20;;;;;;;9.01;27.03;102449.72;5092588;28;20390;-74
2022/03/21 11:11:10;;;;;;;13.63;8.25;;;;;;;9.13;26.53;102438.84;5092671;28;20503;-74
2022/03/21 11:13:39;;;;;;;15.90;8.40;;;;;;;9.25;26.11;102427.06;5093095;28;20477;-74
2022/03/21 11:16:10;;;;;;;14.25;8.13;;;;;;;9.29;26.22;102441.22;5092852;28;20474;-74
2022/03/21 11:18:41;;;;;;;13.27;8.68;;;;;;;9.29;26.45;102425.22;5092809;28;20079;-73
2022/03/21 11:21:11;;;;;;;12.77;7.28;;;;;;;9.34;24.77;102423.34;5092660;28;20064;-74
2022/03/21 11:23:40;;;;;;;13.23;7.45;;;;;;;9.41;25.00;102425.84;5092668;28;20044;-73
2022/03/21 11:26:18;;;;;;;14.40;7.18;;;;;;;9.47;24.59;102419.53;5092128;28;20094;-74
2022/03/21 11:29:22;;;;;;;13.50;7.68;;;;;;;9.52;25.13;102412.28;5092427;28;20044;-74
2022/03/21 11:32:14;;;;;;;11.77;7.70;;;;;;;9.81;24.78;102418.75;5089831;28;20059;-74
2022/03/21 11:34:51;;;;;;;11.45;6.85;;;;;;;9.90;24.03;102407.91;5092400;28;20473;-73
2022/03/21 11:37:27;;;;;;;16.17;8.05;;;;;;;9.95;23.99;102412.22;5091839;28;20063;-74
2022/03/21 11:40:32;;;;;;;12.68;7.35;;;;;;;9.90;24.52;102410.56;5092524;28;20370;-73
2022/03/21 11:43:26;;;;;;;12.48;7.80;;;;;;;9.89;25.12;102407.03;5092357;28;20041;-74
2022/03/21 11:45:57;;;;;;;12.02;8.23;;;;;;;9.92;25.34;102406.06;5092386;28;20067;-74
2022/03/21 11:48:37;;;;;;;13.65;8.30;;;;;;;9.85;25.53;102396.47;5093901;28;20044;-73